sensor_id;sensor_type;location;lat;lon;timestamp;P1;durP1;ratioP1;P2;durP2;ratioP2
25637;SDS011;13496;51.040;13.680;2023-05-09T00:00:04;1.80;;;1.70;;
25637;SDS011;13496;51.040;13.680;2023-05-09T00:05:07;1.95;;;1.80;;
25637;SDS011;13496;51.040;13.680;2023-05-09T00:10:10;1.70;;;1.60;;
25637;SDS011;13496;51.040;13.680;2023-05-09T00:15:11;2.45;;;2.17;;
25637;SDS011;13496;51.040;13.680;2023-05-09T00:20:13;2.03;;;1.90;;
25637;SDS011;13496;51.040;13.680;2023-05-09T00:25:15;1.88;;;1.77;;
25637;SDS011;13496;51.040;13.680;2023-05-09T00:30:17;1.73;;;1.63;;
25637;SDS011;13496;51.040;13.680;2023-05-09T00:35:19;2.00;;;1.90;;
25637;SDS011;13496;51.040;13.680;2023-05-09T00:40:20;1.95;;;1.85;;
25637;SDS011;13496;51.040;13.680;2023-05-09T00:45:23;2.00;;;1.90;;
25637;SDS011;13496;51.040;13.680;2023-05-09T00:50:25;1.95;;;1.85;;
25637;SDS011;13496;51.040;13.680;2023-05-09T00:55:26;1.83;;;1.73;;
25637;SDS011;13496;51.040;13.680;2023-05-09T01:00:29;1.70;;;1.60;;
25637;SDS011;13496;51.040;13.680;2023-05-09T01:05:39;2.17;;;1.98;;
25637;SDS011;13496;51.040;13.680;2023-05-09T01:10:51;1.80;;;1.70;;
25637;SDS011;13496;51.040;13.680;2023-05-09T01:21:13;1.80;;;1.70;;
25637;SDS011;13496;51.040;13.680;2023-05-09T01:26:24;1.70;;;1.60;;
25637;SDS011;13496;51.040;13.680;2023-05-09T01:31:43;1.88;;;1.75;;
25637;SDS011;13496;51.040;13.680;2023-05-09T01:36:47;2.35;;;2.15;;
25637;SDS011;13496;51.040;13.680;2023-05-09T01:41:52;1.90;;;1.70;;
25637;SDS011;13496;51.040;13.680;2023-05-09T01:46:56;1.88;;;1.77;;
25637;SDS011;13496;51.040;13.680;2023-05-09T01:52:03;1.70;;;1.60;;
25637;SDS011;13496;51.040;13.680;2023-05-09T01:57:08;1.90;;;1.80;;
25637;SDS011;13496;51.040;13.680;2023-05-09T02:02:11;2.22;;;1.85;;
25637;SDS011;13496;51.040;13.680;2023-05-09T02:07:13;1.83;;;1.73;;
25637;SDS011;13496;51.040;13.680;2023-05-09T02:12:15;1.80;;;1.70;;
25637;SDS011;13496;51.040;13.680;2023-05-09T02:17:17;4.60;;;1.85;;
25637;SDS011;13496;51.040;13.680;2023-05-09T02:22:19;2.25;;;2.05;;
25637;SDS011;13496;51.040;13.680;2023-05-09T02:27:21;2.25;;;2.05;;
25637;SDS011;13496;51.040;13.680;2023-05-09T02:32:24;2.30;;;2.10;;
25637;SDS011;13496;51.040;13.680;2023-05-09T02:37:29;1.88;;;1.77;;
25637;SDS011;13496;51.040;13.680;2023-05-09T02:42:31;1.73;;;1.63;;
25637;SDS011;13496;51.040;13.680;2023-05-09T02:47:33;1.92;;;1.83;;
25637;SDS011;13496;51.040;13.680;2023-05-09T02:52:35;2.42;;;2.15;;
25637;SDS011;13496;51.040;13.680;2023-05-09T02:57:37;1.90;;;1.80;;
25637;SDS011;13496;51.040;13.680;2023-05-09T03:02:39;2.20;;;2.00;;
25637;SDS011;13496;51.040;13.680;2023-05-09T03:07:46;1.80;;;1.70;;
25637;SDS011;13496;51.040;13.680;2023-05-09T03:12:48;1.95;;;1.80;;
25637;SDS011;13496;51.040;13.680;2023-05-09T03:17:49;2.05;;;1.88;;
25637;SDS011;13496;51.040;13.680;2023-05-09T03:22:51;2.83;;;1.90;;
25637;SDS011;13496;51.040;13.680;2023-05-09T03:27:53;1.85;;;1.75;;
25637;SDS011;13496;51.040;13.680;2023-05-09T03:32:55;1.73;;;1.63;;
25637;SDS011;13496;51.040;13.680;2023-05-09T03:37:57;2.40;;;1.92;;
25637;SDS011;13496;51.040;13.680;2023-05-09T03:42:59;1.90;;;1.80;;
25637;SDS011;13496;51.040;13.680;2023-05-09T03:48:01;2.13;;;1.92;;
25637;SDS011;13496;51.040;13.680;2023-05-09T03:53:06;1.92;;;1.83;;
25637;SDS011;13496;51.040;13.680;2023-05-09T03:58:10;1.95;;;1.75;;
25637;SDS011;13496;51.040;13.680;2023-05-09T04:03:14;2.00;;;1.80;;
25637;SDS011;13496;51.040;13.680;2023-05-09T04:08:20;2.00;;;1.90;;
25637;SDS011;13496;51.040;13.680;2023-05-09T04:13:22;2.05;;;1.73;;
25637;SDS011;13496;51.040;13.680;2023-05-09T04:18:24;2.30;;;2.10;;
25637;SDS011;13496;51.040;13.680;2023-05-09T04:23:26;2.03;;;1.83;;
25637;SDS011;13496;51.040;13.680;2023-05-09T04:28:31;2.03;;;1.85;;
25637;SDS011;13496;51.040;13.680;2023-05-09T04:33:33;4.07;;;2.00;;
25637;SDS011;13496;51.040;13.680;2023-05-09T04:38:38;2.65;;;1.80;;
25637;SDS011;13496;51.040;13.680;2023-05-09T04:43:45;2.75;;;1.92;;
25637;SDS011;13496;51.040;13.680;2023-05-09T04:48:48;3.22;;;2.30;;
25637;SDS011;13496;51.040;13.680;2023-05-09T04:53:50;2.45;;;2.20;;
25637;SDS011;13496;51.040;13.680;2023-05-09T04:58:54;3.70;;;2.38;;
25637;SDS011;13496;51.040;13.680;2023-05-09T05:03:56;4.68;;;2.10;;
25637;SDS011;13496;51.040;13.680;2023-05-09T05:08:58;3.72;;;2.17;;
25637;SDS011;13496;51.040;13.680;2023-05-09T05:14:00;3.35;;;2.10;;
25637;SDS011;13496;51.040;13.680;2023-05-09T05:19:01;2.88;;;2.03;;
25637;SDS011;13496;51.040;13.680;2023-05-09T05:24:05;3.40;;;2.53;;
25637;SDS011;13496;51.040;13.680;2023-05-09T05:29:08;3.78;;;2.00;;
25637;SDS011;13496;51.040;13.680;2023-05-09T05:34:09;3.90;;;2.10;;
25637;SDS011;13496;51.040;13.680;2023-05-09T05:39:12;2.33;;;2.08;;
25637;SDS011;13496;51.040;13.680;2023-05-09T05:44:14;5.65;;;2.22;;
25637;SDS011;13496;51.040;13.680;2023-05-09T05:49:15;3.05;;;2.13;;
25637;SDS011;13496;51.040;13.680;2023-05-09T05:54:18;2.20;;;2.00;;
25637;SDS011;13496;51.040;13.680;2023-05-09T05:59:20;2.72;;;2.10;;
25637;SDS011;13496;51.040;13.680;2023-05-09T06:04:22;3.63;;;2.30;;
25637;SDS011;13496;51.040;13.680;2023-05-09T06:09:23;2.97;;;2.10;;
25637;SDS011;13496;51.040;13.680;2023-05-09T06:14:25;2.35;;;2.00;;
25637;SDS011;13496;51.040;13.680;2023-05-09T06:19:28;2.33;;;2.10;;
25637;SDS011;13496;51.040;13.680;2023-05-09T06:24:29;2.92;;;2.20;;
25637;SDS011;13496;51.040;13.680;2023-05-09T06:29:31;3.08;;;2.25;;
25637;SDS011;13496;51.040;13.680;2023-05-09T06:34:33;2.70;;;1.95;;
25637;SDS011;13496;51.040;13.680;2023-05-09T06:39:34;2.08;;;1.88;;
25637;SDS011;13496;51.040;13.680;2023-05-09T06:44:36;1.95;;;1.83;;
25637;SDS011;13496;51.040;13.680;2023-05-09T06:49:38;2.40;;;1.85;;
25637;SDS011;13496;51.040;13.680;2023-05-09T06:54:40;3.45;;;2.40;;
25637;SDS011;13496;51.040;13.680;2023-05-09T06:59:41;2.13;;;1.83;;
25637;SDS011;13496;51.040;13.680;2023-05-09T07:04:45;2.45;;;2.03;;
25637;SDS011;13496;51.040;13.680;2023-05-09T07:09:46;2.20;;;2.00;;
25637;SDS011;13496;51.040;13.680;2023-05-09T07:14:48;2.25;;;1.75;;
25637;SDS011;13496;51.040;13.680;2023-05-09T07:19:50;2.60;;;1.88;;
25637;SDS011;13496;51.040;13.680;2023-05-09T07:24:52;1.95;;;1.80;;
25637;SDS011;13496;51.040;13.680;2023-05-09T07:29:53;2.33;;;2.13;;
25637;SDS011;13496;51.040;13.680;2023-05-09T07:34:55;3.65;;;1.85;;
25637;SDS011;13496;51.040;13.680;2023-05-09T07:39:57;2.25;;;2.05;;
25637;SDS011;13496;51.040;13.680;2023-05-09T07:44:59;2.83;;;1.98;;
25637;SDS011;13496;51.040;13.680;2023-05-09T07:50:00;2.10;;;1.90;;
25637;SDS011;13496;51.040;13.680;2023-05-09T07:55:02;2.35;;;1.90;;
25637;SDS011;13496;51.040;13.680;2023-05-09T08:00:04;2.85;;;2.20;;
25637;SDS011;13496;51.040;13.680;2023-05-09T08:05:14;2.53;;;2.33;;
25637;SDS011;13496;51.040;13.680;2023-05-09T08:10:16;2.60;;;2.28;;
25637;SDS011;13496;51.040;13.680;2023-05-09T08:15:18;2.10;;;1.90;;
25637;SDS011;13496;51.040;13.680;2023-05-09T08:20:20;1.55;;;1.45;;
25637;SDS011;13496;51.040;13.680;2023-05-09T08:25:21;2.20;;;1.80;;
25637;SDS011;13496;51.040;13.680;2023-05-09T08:30:23;2.63;;;2.15;;
25637;SDS011;13496;51.040;13.680;2023-05-09T08:35:25;1.88;;;1.55;;
25637;SDS011;13496;51.040;13.680;2023-05-09T08:40:27;1.80;;;1.70;;
25637;SDS011;13496;51.040;13.680;2023-05-09T08:45:28;1.98;;;1.88;;
25637;SDS011;13496;51.040;13.680;2023-05-09T08:50:31;1.70;;;1.60;;
25637;SDS011;13496;51.040;13.680;2023-05-09T08:55:33;1.88;;;1.60;;
25637;SDS011;13496;51.040;13.680;2023-05-09T09:00:35;1.90;;;1.77;;
25637;SDS011;13496;51.040;13.680;2023-05-09T09:05:39;1.90;;;1.80;;
25637;SDS011;13496;51.040;13.680;2023-05-09T09:10:42;1.70;;;1.60;;
25637;SDS011;13496;51.040;13.680;2023-05-09T09:15:47;1.85;;;1.70;;
25637;SDS011;13496;51.040;13.680;2023-05-09T09:20:52;1.70;;;1.60;;
25637;SDS011;13496;51.040;13.680;2023-05-09T09:25:58;1.95;;;1.83;;
25637;SDS011;13496;51.040;13.680;2023-05-09T09:31:02;2.28;;;1.80;;
25637;SDS011;13496;51.040;13.680;2023-05-09T09:36:26;2.00;;;1.67;;
25637;SDS011;13496;51.040;13.680;2023-05-09T09:41:32;1.73;;;1.55;;
25637;SDS011;13496;51.040;13.680;2023-05-09T09:46:41;1.80;;;1.70;;
25637;SDS011;13496;51.040;13.680;2023-05-09T09:51:49;1.60;;;1.50;;
25637;SDS011;13496;51.040;13.680;2023-05-09T09:56:52;1.70;;;1.60;;
25637;SDS011;13496;51.040;13.680;2023-05-09T10:07:05;1.63;;;1.50;;
25637;SDS011;13496;51.040;13.680;2023-05-09T10:12:07;1.67;;;1.58;;
25637;SDS011;13496;51.040;13.680;2023-05-09T10:17:10;1.88;;;1.70;;
25637;SDS011;13496;51.040;13.680;2023-05-09T10:22:14;1.85;;;1.50;;
25637;SDS011;13496;51.040;13.680;2023-05-09T10:27:20;1.60;;;1.50;;
25637;SDS011;13496;51.040;13.680;2023-05-09T10:32:25;1.80;;;1.70;;
25637;SDS011;13496;51.040;13.680;2023-05-09T10:37:29;1.50;;;1.40;;
25637;SDS011;13496;51.040;13.680;2023-05-09T10:42:31;1.75;;;1.65;;
25637;SDS011;13496;51.040;13.680;2023-05-09T10:47:33;1.83;;;1.73;;
25637;SDS011;13496;51.040;13.680;2023-05-09T11:03:53;1.98;;;1.60;;
25637;SDS011;13496;51.040;13.680;2023-05-09T11:09:00;1.70;;;1.60;;
25637;SDS011;13496;51.040;13.680;2023-05-09T11:14:32;1.42;;;1.33;;
25637;SDS011;13496;51.040;13.680;2023-05-09T11:24:51;1.70;;;1.60;;
25637;SDS011;13496;51.040;13.680;2023-05-09T11:29:57;1.67;;;1.50;;
25637;SDS011;13496;51.040;13.680;2023-05-09T11:35:09;1.58;;;1.48;;
25637;SDS011;13496;51.040;13.680;2023-05-09T11:40:16;1.42;;;1.33;;
25637;SDS011;13496;51.040;13.680;2023-05-09T11:45:19;1.80;;;1.70;;
25637;SDS011;13496;51.040;13.680;2023-05-09T11:50:21;1.35;;;1.25;;
25637;SDS011;13496;51.040;13.680;2023-05-09T11:55:23;1.77;;;1.67;;
25637;SDS011;13496;51.040;13.680;2023-05-09T12:00:25;1.48;;;1.38;;
25637;SDS011;13496;51.040;13.680;2023-05-09T12:05:27;1.60;;;1.50;;
25637;SDS011;13496;51.040;13.680;2023-05-09T12:10:29;1.50;;;1.40;;
25637;SDS011;13496;51.040;13.680;2023-05-09T12:15:37;1.42;;;1.33;;
25637;SDS011;13496;51.040;13.680;2023-05-09T12:20:48;1.40;;;1.30;;
25637;SDS011;13496;51.040;13.680;2023-05-09T12:25:54;1.50;;;1.40;;
25637;SDS011;13496;51.040;13.680;2023-05-09T12:30:57;1.52;;;1.42;;
25637;SDS011;13496;51.040;13.680;2023-05-09T12:36:09;1.92;;;1.40;;
25637;SDS011;13496;51.040;13.680;2023-05-09T12:41:12;1.60;;;1.40;;
25637;SDS011;13496;51.040;13.680;2023-05-09T12:46:17;1.88;;;1.50;;
25637;SDS011;13496;51.040;13.680;2023-05-09T12:51:20;1.80;;;1.70;;
25637;SDS011;13496;51.040;13.680;2023-05-09T12:56:22;1.50;;;1.40;;
25637;SDS011;13496;51.040;13.680;2023-05-09T13:01:27;1.52;;;1.40;;
25637;SDS011;13496;51.040;13.680;2023-05-09T13:06:29;1.52;;;1.42;;
25637;SDS011;13496;51.040;13.680;2023-05-09T13:11:31;1.30;;;1.20;;
25637;SDS011;13496;51.040;13.680;2023-05-09T13:16:33;1.40;;;1.30;;
25637;SDS011;13496;51.040;13.680;2023-05-09T13:21:35;1.38;;;1.27;;
25637;SDS011;13496;51.040;13.680;2023-05-09T13:26:37;1.40;;;1.30;;
25637;SDS011;13496;51.040;13.680;2023-05-09T13:31:38;1.40;;;1.30;;
25637;SDS011;13496;51.040;13.680;2023-05-09T13:36:40;1.40;;;1.30;;
25637;SDS011;13496;51.040;13.680;2023-05-09T13:41:42;1.10;;;1.10;;
25637;SDS011;13496;51.040;13.680;2023-05-09T13:46:44;1.50;;;1.40;;
25637;SDS011;13496;51.040;13.680;2023-05-09T13:51:46;1.60;;;1.50;;
25637;SDS011;13496;51.040;13.680;2023-05-09T13:56:48;1.60;;;1.50;;
25637;SDS011;13496;51.040;13.680;2023-05-09T14:01:51;1.55;;;1.38;;
25637;SDS011;13496;51.040;13.680;2023-05-09T14:06:53;1.83;;;1.60;;
25637;SDS011;13496;51.040;13.680;2023-05-09T14:11:56;1.73;;;1.48;;
25637;SDS011;13496;51.040;13.680;2023-05-09T14:16:58;1.30;;;1.20;;
25637;SDS011;13496;51.040;13.680;2023-05-09T14:22:00;1.60;;;1.50;;
25637;SDS011;13496;51.040;13.680;2023-05-09T14:27:02;2.17;;;1.60;;
25637;SDS011;13496;51.040;13.680;2023-05-09T14:32:04;2.35;;;1.50;;
25637;SDS011;13496;51.040;13.680;2023-05-09T14:37:07;2.63;;;1.60;;
25637;SDS011;13496;51.040;13.680;2023-05-09T14:42:13;2.08;;;1.50;;
25637;SDS011;13496;51.040;13.680;2023-05-09T14:47:16;2.42;;;1.50;;
25637;SDS011;13496;51.040;13.680;2023-05-09T14:52:18;2.53;;;1.55;;
25637;SDS011;13496;51.040;13.680;2023-05-09T14:57:20;1.48;;;1.38;;
25637;SDS011;13496;51.040;13.680;2023-05-09T15:02:22;1.75;;;1.65;;
25637;SDS011;13496;51.040;13.680;2023-05-09T15:07:24;1.98;;;1.40;;
25637;SDS011;13496;51.040;13.680;2023-05-09T15:12:25;2.15;;;1.63;;
25637;SDS011;13496;51.040;13.680;2023-05-09T15:17:27;1.50;;;1.40;;
25637;SDS011;13496;51.040;13.680;2023-05-09T15:22:29;2.67;;;2.00;;
25637;SDS011;13496;51.040;13.680;2023-05-09T15:27:33;2.13;;;1.52;;
25637;SDS011;13496;51.040;13.680;2023-05-09T15:32:36;1.80;;;1.60;;
25637;SDS011;13496;51.040;13.680;2023-05-09T15:37:39;2.33;;;1.50;;
25637;SDS011;13496;51.040;13.680;2023-05-09T15:42:40;2.30;;;1.98;;
25637;SDS011;13496;51.040;13.680;2023-05-09T15:47:42;1.65;;;1.55;;
25637;SDS011;13496;51.040;13.680;2023-05-09T15:52:44;3.45;;;1.75;;
25637;SDS011;13496;51.040;13.680;2023-05-09T15:57:45;2.83;;;1.60;;
25637;SDS011;13496;51.040;13.680;2023-05-09T16:02:48;2.13;;;1.80;;
25637;SDS011;13496;51.040;13.680;2023-05-09T16:07:50;1.65;;;1.55;;
25637;SDS011;13496;51.040;13.680;2023-05-09T16:12:53;2.53;;;1.50;;
25637;SDS011;13496;51.040;13.680;2023-05-09T16:17:55;1.70;;;1.50;;
25637;SDS011;13496;51.040;13.680;2023-05-09T16:22:56;1.77;;;1.67;;
25637;SDS011;13496;51.040;13.680;2023-05-09T16:27:58;1.70;;;1.60;;
25637;SDS011;13496;51.040;13.680;2023-05-09T16:33:00;2.42;;;1.77;;
25637;SDS011;13496;51.040;13.680;2023-05-09T16:38:02;2.00;;;1.52;;
25637;SDS011;13496;51.040;13.680;2023-05-09T16:43:04;1.63;;;1.52;;
25637;SDS011;13496;51.040;13.680;2023-05-09T16:48:05;1.73;;;1.63;;
25637;SDS011;13496;51.040;13.680;2023-05-09T16:53:08;3.13;;;1.65;;
25637;SDS011;13496;51.040;13.680;2023-05-09T16:58:09;4.60;;;2.10;;
25637;SDS011;13496;51.040;13.680;2023-05-09T17:03:11;5.63;;;2.05;;
25637;SDS011;13496;51.040;13.680;2023-05-09T17:08:14;4.18;;;2.38;;
25637;SDS011;13496;51.040;13.680;2023-05-09T17:13:16;5.68;;;2.10;;
25637;SDS011;13496;51.040;13.680;2023-05-09T17:18:18;3.92;;;2.33;;
25637;SDS011;13496;51.040;13.680;2023-05-09T17:23:19;8.23;;;2.38;;
25637;SDS011;13496;51.040;13.680;2023-05-09T17:28:21;8.00;;;2.10;;
25637;SDS011;13496;51.040;13.680;2023-05-09T17:33:23;7.47;;;2.53;;
25637;SDS011;13496;51.040;13.680;2023-05-09T17:38:25;10.27;;;2.42;;
25637;SDS011;13496;51.040;13.680;2023-05-09T17:43:27;6.82;;;2.40;;
25637;SDS011;13496;51.040;13.680;2023-05-09T17:48:29;9.25;;;2.78;;
25637;SDS011;13496;51.040;13.680;2023-05-09T17:53:30;6.75;;;2.40;;
25637;SDS011;13496;51.040;13.680;2023-05-09T17:58:32;5.60;;;2.30;;
25637;SDS011;13496;51.040;13.680;2023-05-09T18:03:34;3.95;;;2.20;;
25637;SDS011;13496;51.040;13.680;2023-05-09T18:08:36;6.05;;;2.35;;
25637;SDS011;13496;51.040;13.680;2023-05-09T18:13:37;6.95;;;2.50;;
25637;SDS011;13496;51.040;13.680;2023-05-09T18:18:39;7.90;;;2.40;;
25637;SDS011;13496;51.040;13.680;2023-05-09T18:23:41;7.45;;;2.55;;
25637;SDS011;13496;51.040;13.680;2023-05-09T18:28:42;7.68;;;2.30;;
25637;SDS011;13496;51.040;13.680;2023-05-09T18:33:44;6.05;;;2.65;;
25637;SDS011;13496;51.040;13.680;2023-05-09T18:38:46;5.20;;;2.60;;
25637;SDS011;13496;51.040;13.680;2023-05-09T18:43:48;7.18;;;2.55;;
25637;SDS011;13496;51.040;13.680;2023-05-09T18:48:50;2.80;;;2.15;;
25637;SDS011;13496;51.040;13.680;2023-05-09T18:53:52;4.35;;;2.17;;
25637;SDS011;13496;51.040;13.680;2023-05-09T18:58:54;6.60;;;2.50;;
25637;SDS011;13496;51.040;13.680;2023-05-09T19:03:57;6.55;;;2.45;;
25637;SDS011;13496;51.040;13.680;2023-05-09T19:08:58;5.05;;;2.50;;
25637;SDS011;13496;51.040;13.680;2023-05-09T19:14:02;4.60;;;2.45;;
25637;SDS011;13496;51.040;13.680;2023-05-09T19:19:04;5.60;;;2.22;;
25637;SDS011;13496;51.040;13.680;2023-05-09T19:24:06;7.45;;;2.35;;
25637;SDS011;13496;51.040;13.680;2023-05-09T19:29:09;3.50;;;1.80;;
25637;SDS011;13496;51.040;13.680;2023-05-09T19:34:11;4.93;;;2.22;;
25637;SDS011;13496;51.040;13.680;2023-05-09T19:39:13;4.50;;;2.50;;
25637;SDS011;13496;51.040;13.680;2023-05-09T19:44:15;2.60;;;2.33;;
25637;SDS011;13496;51.040;13.680;2023-05-09T19:49:17;6.03;;;2.92;;
25637;SDS011;13496;51.040;13.680;2023-05-09T19:54:24;5.15;;;2.97;;
25637;SDS011;13496;51.040;13.680;2023-05-09T19:59:27;3.92;;;3.25;;
25637;SDS011;13496;51.040;13.680;2023-05-09T20:04:32;7.78;;;3.25;;
25637;SDS011;13496;51.040;13.680;2023-05-09T20:09:35;4.47;;;3.22;;
25637;SDS011;13496;51.040;13.680;2023-05-09T20:14:36;4.63;;;2.83;;
25637;SDS011;13496;51.040;13.680;2023-05-09T20:19:38;4.95;;;3.10;;
25637;SDS011;13496;51.040;13.680;2023-05-09T20:24:40;4.95;;;3.60;;
25637;SDS011;13496;51.040;13.680;2023-05-09T20:29:42;4.15;;;3.47;;
25637;SDS011;13496;51.040;13.680;2023-05-09T20:34:44;5.32;;;4.22;;
25637;SDS011;13496;51.040;13.680;2023-05-09T20:39:46;5.55;;;3.65;;
25637;SDS011;13496;51.040;13.680;2023-05-09T20:44:47;5.93;;;4.00;;
25637;SDS011;13496;51.040;13.680;2023-05-09T20:49:51;4.38;;;3.58;;
25637;SDS011;13496;51.040;13.680;2023-05-09T20:54:53;5.45;;;3.80;;
25637;SDS011;13496;51.040;13.680;2023-05-09T20:59:55;4.80;;;3.70;;
25637;SDS011;13496;51.040;13.680;2023-05-09T21:04:56;5.43;;;3.60;;
25637;SDS011;13496;51.040;13.680;2023-05-09T21:09:58;5.65;;;3.85;;
25637;SDS011;13496;51.040;13.680;2023-05-09T21:15:00;4.40;;;3.83;;
25637;SDS011;13496;51.040;13.680;2023-05-09T21:20:03;4.85;;;4.10;;
25637;SDS011;13496;51.040;13.680;2023-05-09T21:25:05;5.30;;;4.30;;
25637;SDS011;13496;51.040;13.680;2023-05-09T21:30:07;6.95;;;4.20;;
25637;SDS011;13496;51.040;13.680;2023-05-09T21:35:09;5.10;;;4.32;;
25637;SDS011;13496;51.040;13.680;2023-05-09T21:40:13;5.78;;;3.75;;
25637;SDS011;13496;51.040;13.680;2023-05-09T21:45:14;5.88;;;4.57;;
25637;SDS011;13496;51.040;13.680;2023-05-09T21:50:16;4.50;;;3.83;;
25637;SDS011;13496;51.040;13.680;2023-05-09T21:55:18;6.00;;;4.15;;
25637;SDS011;13496;51.040;13.680;2023-05-09T22:00:20;5.65;;;4.50;;
25637;SDS011;13496;51.040;13.680;2023-05-09T22:05:22;6.13;;;3.92;;
25637;SDS011;13496;51.040;13.680;2023-05-09T22:10:24;5.43;;;4.40;;
25637;SDS011;13496;51.040;13.680;2023-05-09T22:15:25;5.30;;;4.00;;
25637;SDS011;13496;51.040;13.680;2023-05-09T22:20:28;4.80;;;3.88;;
25637;SDS011;13496;51.040;13.680;2023-05-09T22:25:29;4.68;;;4.13;;
25637;SDS011;13496;51.040;13.680;2023-05-09T22:30:31;5.18;;;4.30;;
25637;SDS011;13496;51.040;13.680;2023-05-09T22:35:33;5.45;;;4.13;;
25637;SDS011;13496;51.040;13.680;2023-05-09T22:40:34;5.10;;;3.88;;
25637;SDS011;13496;51.040;13.680;2023-05-09T22:45:36;5.53;;;3.97;;
25637;SDS011;13496;51.040;13.680;2023-05-09T22:50:38;5.88;;;4.00;;
25637;SDS011;13496;51.040;13.680;2023-05-09T22:55:40;5.35;;;3.80;;
25637;SDS011;13496;51.040;13.680;2023-05-09T23:00:41;4.18;;;3.78;;
25637;SDS011;13496;51.040;13.680;2023-05-09T23:05:43;4.13;;;3.60;;
25637;SDS011;13496;51.040;13.680;2023-05-09T23:10:45;4.78;;;3.72;;
25637;SDS011;13496;51.040;13.680;2023-05-09T23:15:46;4.57;;;3.80;;
25637;SDS011;13496;51.040;13.680;2023-05-09T23:20:49;4.70;;;3.90;;
25637;SDS011;13496;51.040;13.680;2023-05-09T23:25:50;4.10;;;3.42;;
25637;SDS011;13496;51.040;13.680;2023-05-09T23:30:52;3.72;;;3.28;;
25637;SDS011;13496;51.040;13.680;2023-05-09T23:35:54;4.25;;;3.40;;
25637;SDS011;13496;51.040;13.680;2023-05-09T23:40:56;4.68;;;3.40;;
25637;SDS011;13496;51.040;13.680;2023-05-09T23:46:00;4.40;;;3.83;;
25637;SDS011;13496;51.040;13.680;2023-05-09T23:51:02;3.97;;;3.65;;
25637;SDS011;13496;51.040;13.680;2023-05-09T23:56:04;3.92;;;3.55;;
